createdAt,value
2022-12-16T00:00:56.626Z,8.6
2022-12-16T00:03:58.536Z,9
2022-12-16T00:07:00.500Z,9.4
2022-12-16T00:10:02.521Z,8.8
2022-12-16T00:13:08.859Z,8.5
2022-12-16T00:16:06.541Z,8.4
2022-12-16T00:19:08.394Z,8.2
2022-12-16T00:22:10.368Z,8.1
2022-12-16T00:25:12.315Z,7.6
2022-12-16T00:28:14.292Z,7.6
2022-12-16T00:31:16.299Z,7.8
2022-12-16T00:34:18.202Z,7.6
2022-12-16T00:37:20.184Z,7.5
2022-12-16T00:40:22.137Z,8.2
2022-12-16T00:43:24.115Z,8.3
2022-12-16T00:46:26.129Z,6.7
2022-12-16T00:49:28.063Z,6.5
2022-12-16T00:52:30.064Z,7.8
2022-12-16T00:55:31.998Z,7.4
2022-12-16T00:58:33.992Z,7
2022-12-16T01:01:36.058Z,6.5
2022-12-16T01:04:37.902Z,7.1
2022-12-16T01:07:39.855Z,7.2
2022-12-16T01:10:41.819Z,6.2
2022-12-16T01:13:43.779Z,6.3
2022-12-16T01:16:45.749Z,6.1
2022-12-16T01:19:47.689Z,6.9
2022-12-16T01:22:49.650Z,6.1
2022-12-16T01:25:51.622Z,5.2
2022-12-16T01:28:53.608Z,6.5
2022-12-16T01:31:55.654Z,6.2
2022-12-16T01:34:57.528Z,7.1
2022-12-16T01:37:59.501Z,7
2022-12-16T01:41:01.453Z,6.1
2022-12-16T01:44:03.429Z,6.3
2022-12-16T01:47:05.391Z,5.9
2022-12-16T01:50:07.352Z,5.7
2022-12-16T01:53:09.316Z,6.9
2022-12-16T01:56:11.273Z,6.1
2022-12-16T01:59:13.248Z,7.2
2022-12-16T02:02:15.509Z,7
2022-12-16T02:05:17.184Z,6.5
2022-12-16T02:08:19.144Z,6.2
2022-12-16T02:11:21.106Z,6.6
2022-12-16T02:14:23.087Z,5.5
2022-12-16T02:17:25.032Z,6.6
2022-12-16T02:20:26.998Z,6.3
2022-12-16T02:23:29.112Z,6.4
2022-12-16T02:26:30.928Z,6
2022-12-16T02:29:32.894Z,6.5
2022-12-16T02:32:34.846Z,5.7
2022-12-16T02:35:36.824Z,7.3
2022-12-16T02:38:38.778Z,6.3
2022-12-16T02:41:40.740Z,5.5
2022-12-16T02:44:42.717Z,5.4
2022-12-16T02:47:44.665Z,5.9
2022-12-16T02:50:46.647Z,5.3
2022-12-16T02:53:48.623Z,6.4
2022-12-16T02:56:50.563Z,6
2022-12-16T02:59:52.530Z,6.1
2022-12-16T03:02:54.661Z,5.6
2022-12-16T03:05:56.627Z,5.5
2022-12-16T03:08:58.436Z,5.5
2022-12-16T03:12:00.386Z,5.3
2022-12-16T03:15:02.353Z,5.7
2022-12-16T03:18:04.347Z,5.4
2022-12-16T03:21:06.286Z,5.1
2022-12-16T03:24:08.255Z,5.4
2022-12-16T03:27:10.214Z,5.5
2022-12-16T03:30:12.224Z,5.3
2022-12-16T03:33:14.168Z,5.9
2022-12-16T03:36:16.153Z,5.3
2022-12-16T03:39:18.133Z,5.4
2022-12-16T03:42:20.139Z,4.6
2022-12-16T03:45:22.070Z,5.2
2022-12-16T03:48:24.019Z,4.4
2022-12-16T03:51:25.972Z,4.7
2022-12-16T03:54:27.953Z,4.5
2022-12-16T03:57:29.903Z,4.4
2022-12-16T04:00:31.881Z,4.7
2022-12-16T04:03:34.076Z,4.1
2022-12-16T04:06:35.791Z,4.8
2022-12-16T04:09:37.754Z,4.1
2022-12-16T04:12:39.722Z,4
2022-12-16T04:15:41.718Z,3.7
2022-12-16T04:18:43.663Z,4.5
2022-12-16T04:21:45.616Z,4.6
2022-12-16T04:24:47.601Z,4.8
2022-12-16T04:27:49.552Z,4.2
2022-12-16T04:30:51.544Z,4.5
2022-12-16T04:33:53.487Z,4.3
2022-12-16T04:36:55.446Z,4.5
2022-12-16T04:39:57.402Z,3.8
2022-12-16T04:42:59.362Z,3.8
2022-12-16T04:46:01.364Z,4.3
2022-12-16T04:49:03.299Z,4.2
2022-12-16T04:52:05.271Z,4.3
2022-12-16T04:55:07.242Z,4.1
2022-12-16T04:58:09.202Z,3.9
2022-12-16T05:01:11.180Z,5.1
2022-12-16T05:04:13.150Z,4.2
2022-12-16T05:07:15.081Z,4.7
2022-12-16T05:10:17.046Z,4.7
2022-12-16T05:13:19.016Z,4.4
2022-12-16T05:16:21.024Z,3.5
2022-12-16T05:19:25.827Z,3.8
2022-12-16T05:22:24.905Z,3.8
2022-12-16T05:25:26.877Z,4.2
2022-12-16T05:28:28.842Z,3.8
2022-12-16T05:31:30.868Z,4.1
2022-12-16T05:34:32.772Z,3.8
2022-12-16T05:37:34.735Z,3.9
2022-12-16T05:40:36.698Z,4.1
2022-12-16T05:43:38.694Z,3.8
2022-12-16T05:46:40.790Z,3.5
2022-12-16T05:49:42.627Z,4.1
2022-12-16T05:52:44.591Z,3.8
2022-12-16T05:55:46.568Z,4.5
2022-12-16T05:58:48.525Z,4.2
2022-12-16T06:01:50.538Z,5
2022-12-16T06:04:52.460Z,3.8
2022-12-16T06:07:54.408Z,4.3
2022-12-16T06:10:56.365Z,3.7
2022-12-16T06:13:58.355Z,4.4
2022-12-16T06:17:00.296Z,3.9
2022-12-16T06:20:02.252Z,4.2
2022-12-16T06:23:04.228Z,4.4
2022-12-16T06:26:06.165Z,3.5
2022-12-16T06:29:08.133Z,4.6
2022-12-16T06:32:10.097Z,4.2
2022-12-16T06:35:12.050Z,3.8
2022-12-16T06:38:14.007Z,4
2022-12-16T06:41:15.968Z,3.3
2022-12-16T06:44:17.977Z,3.8
2022-12-16T06:47:19.892Z,4.2
2022-12-16T06:50:21.837Z,3.7
2022-12-16T06:53:23.816Z,4.9
2022-12-16T06:56:25.767Z,4.3
2022-12-16T06:59:27.727Z,4.4
2022-12-16T07:02:29.749Z,4.7
2022-12-16T07:05:31.677Z,4.4
2022-12-16T07:08:33.642Z,3.9
2022-12-16T07:11:35.607Z,4.9
2022-12-16T07:14:40.508Z,3.5
2022-12-16T07:17:42.458Z,4.4
2022-12-16T07:20:44.416Z,4.6
2022-12-16T07:23:46.390Z,3.8
2022-12-16T07:26:48.364Z,4.5
2022-12-16T07:29:50.315Z,4.8
2022-12-16T07:32:52.285Z,4.2
2022-12-16T07:35:54.234Z,4.7
2022-12-16T07:38:56.202Z,4.7
2022-12-16T07:41:58.255Z,5.9
2022-12-16T07:45:00.158Z,3.8
2022-12-16T07:48:02.100Z,4.2
2022-12-16T07:51:04.117Z,3.9
2022-12-16T07:54:06.028Z,5
2022-12-16T07:57:07.960Z,4.2
2022-12-16T08:00:09.946Z,4.6
2022-12-16T08:03:11.988Z,4.9
2022-12-16T08:06:13.876Z,4.3
2022-12-16T08:09:15.855Z,4.1
2022-12-16T08:12:17.983Z,3.9
2022-12-16T08:15:19.773Z,4.6
2022-12-16T08:18:21.762Z,4.4
2022-12-16T08:21:23.707Z,4.4
2022-12-16T08:24:25.678Z,4.4
2022-12-16T08:27:27.636Z,5
2022-12-16T08:30:29.627Z,4
2022-12-16T08:33:31.969Z,4.7
2022-12-16T08:36:33.568Z,4.6
2022-12-16T08:39:35.517Z,4.5
2022-12-16T08:42:37.464Z,4.6
2022-12-16T08:45:39.494Z,4.4
2022-12-16T08:48:41.394Z,4.8
2022-12-16T08:51:43.357Z,4.4
2022-12-16T08:54:45.319Z,5.7
2022-12-16T08:57:47.312Z,5.1
2022-12-16T09:00:49.273Z,5.2
2022-12-16T09:03:51.262Z,5.2
2022-12-16T09:06:53.191Z,5
2022-12-16T09:09:55.177Z,4.8
2022-12-16T09:12:57.148Z,4.5
2022-12-16T09:15:59.105Z,5.5
2022-12-16T09:19:01.076Z,4.4
2022-12-16T09:22:03.028Z,5
2022-12-16T09:25:05.019Z,5
2022-12-16T09:28:06.987Z,4.5
2022-12-16T09:31:09.063Z,4.3
2022-12-16T09:34:10.974Z,4.6
2022-12-16T09:37:12.871Z,4.4
2022-12-16T09:40:14.840Z,5.1
2022-12-16T09:43:16.793Z,4.8
2022-12-16T09:46:18.847Z,4.7
2022-12-16T09:49:20.715Z,4.8
2022-12-16T09:52:22.682Z,4.9
2022-12-16T09:55:24.660Z,5
2022-12-16T09:58:26.610Z,4.9
2022-12-16T10:01:28.670Z,4.3
2022-12-16T10:04:30.535Z,4.4
2022-12-16T10:07:32.509Z,6.1
2022-12-16T10:10:34.470Z,4.8
2022-12-16T10:13:36.778Z,4.2
2022-12-16T10:16:38.404Z,4.1
2022-12-16T10:19:40.370Z,4.5
2022-12-16T10:22:42.335Z,4
2022-12-16T10:25:44.308Z,3.8
2022-12-16T10:28:46.254Z,4.5
2022-12-16T10:31:48.276Z,4.9
2022-12-16T10:34:50.382Z,5
2022-12-16T10:37:52.201Z,3.9
2022-12-16T10:40:54.448Z,4.2
2022-12-16T10:43:56.179Z,4.2
2022-12-16T10:46:58.208Z,5.2
2022-12-16T10:53:02.067Z,5
2022-12-16T10:56:04.074Z,5.2
2022-12-16T10:59:06.079Z,4.9
2022-12-16T11:02:08.104Z,4.7
2022-12-16T11:05:09.988Z,5.2
2022-12-16T11:08:11.963Z,6.2
2022-12-16T11:11:13.934Z,4.6
2022-12-16T11:14:15.891Z,5
2022-12-16T11:17:17.863Z,4.4
2022-12-16T11:20:19.814Z,4.1
2022-12-16T11:23:21.778Z,4.9
2022-12-16T11:26:23.734Z,4.7
2022-12-16T11:29:25.708Z,4.9
2022-12-16T11:32:27.673Z,5.9
2022-12-16T11:35:29.645Z,5.6
2022-12-16T11:38:31.638Z,5.6
2022-12-16T11:41:33.544Z,5.1
2022-12-16T11:44:35.536Z,6.1
2022-12-16T11:47:37.473Z,4.9
2022-12-16T11:50:39.465Z,5.3
2022-12-16T11:53:41.412Z,4.9
2022-12-16T11:56:43.479Z,5.2
2022-12-16T11:59:45.432Z,4.9
2022-12-16T12:02:47.422Z,5.5
2022-12-16T12:05:49.439Z,5.4
2022-12-16T12:08:51.390Z,5.2
2022-12-16T12:11:53.345Z,4.7
2022-12-16T12:14:55.307Z,5.9
2022-12-16T12:17:57.272Z,5.1
2022-12-16T12:20:59.222Z,5.9
2022-12-16T12:24:01.188Z,5
2022-12-16T12:27:03.135Z,6
2022-12-16T12:30:05.094Z,6.1
2022-12-16T12:33:07.067Z,6.1
2022-12-16T12:36:09.072Z,6.2
2022-12-16T12:39:10.971Z,5.2
2022-12-16T12:42:12.929Z,6.6
2022-12-16T12:45:14.904Z,5.9
2022-12-16T12:48:16.926Z,5.9
2022-12-16T12:51:18.833Z,4.8
2022-12-16T12:54:20.794Z,5.4
2022-12-16T12:57:22.897Z,6.3
2022-12-16T13:00:24.839Z,6.1
2022-12-16T13:03:26.872Z,6.1
2022-12-16T13:06:28.754Z,5.3
2022-12-16T13:09:30.720Z,5.6
2022-12-16T13:12:32.681Z,5.9
2022-12-16T13:15:34.638Z,5.1
2022-12-16T13:18:36.608Z,4.8
2022-12-16T13:21:38.673Z,6.2
2022-12-16T13:24:40.659Z,5.2
2022-12-16T13:27:42.597Z,5.2
2022-12-16T13:30:45.694Z,6
2022-12-16T13:33:46.613Z,5.9
2022-12-16T13:36:48.499Z,5.6
2022-12-16T13:39:50.519Z,5.2
2022-12-16T13:42:52.475Z,5.2
2022-12-16T13:45:54.580Z,5.2
2022-12-16T13:48:59.466Z,5.6
2022-12-16T13:52:01.423Z,5.8
2022-12-16T13:55:03.378Z,6
2022-12-16T13:58:05.340Z,5
2022-12-16T14:01:07.439Z,5.2
2022-12-16T14:04:09.360Z,5.9
2022-12-16T14:07:14.251Z,5.8
2022-12-16T14:10:16.155Z,5.7
2022-12-16T14:13:18.143Z,6.2
2022-12-16T14:16:20.162Z,6.5
2022-12-16T14:19:22.041Z,6.1
2022-12-16T14:22:23.993Z,5
2022-12-16T14:25:27.936Z,6.2
2022-12-16T14:28:27.923Z,6.1
2022-12-16T14:31:29.918Z,5.9
2022-12-16T14:34:31.836Z,5.7
2022-12-16T14:37:33.815Z,6.2
2022-12-16T14:40:35.766Z,6.3
2022-12-16T14:43:37.737Z,7
2022-12-16T14:46:39.689Z,6.4
2022-12-16T14:49:41.670Z,7.1
2022-12-16T14:52:43.637Z,6.4
2022-12-16T14:55:45.619Z,6.4
2022-12-16T14:58:47.580Z,7.3
2022-12-16T15:01:49.737Z,6.5
2022-12-16T15:04:51.626Z,6.8
2022-12-16T15:07:53.448Z,7.5
2022-12-16T15:10:55.396Z,6.6
2022-12-16T15:14:03.303Z,7.4
2022-12-16T15:16:59.362Z,6.7
2022-12-16T15:20:03.498Z,6
2022-12-16T15:23:03.251Z,6.5
2022-12-16T15:26:05.212Z,8
2022-12-16T15:29:07.174Z,6.6
2022-12-16T15:32:09.136Z,6
2022-12-16T15:35:11.107Z,7.2
2022-12-16T15:38:13.083Z,7.3
2022-12-16T15:41:15.040Z,7.4
2022-12-16T15:44:17.029Z,7.7
2022-12-16T15:47:18.946Z,8.2
2022-12-16T15:50:20.915Z,7.6
2022-12-16T15:53:22.876Z,8.3
2022-12-16T15:56:24.839Z,7.7
2022-12-16T15:59:26.805Z,8
2022-12-16T16:02:28.842Z,7.8
2022-12-16T16:05:30.742Z,8.7
2022-12-16T16:08:32.725Z,7.8
2022-12-16T16:11:34.673Z,6.7
2022-12-16T16:14:36.622Z,7.7
2022-12-16T16:17:38.588Z,6.6
2022-12-16T16:20:40.551Z,7.2
2022-12-16T16:23:42.540Z,7.3
2022-12-16T16:26:44.512Z,7.7
2022-12-16T16:29:46.793Z,7.9
2022-12-16T16:32:48.503Z,7.3
2022-12-16T16:35:50.444Z,7
2022-12-16T16:38:52.410Z,7.9
2022-12-16T16:41:54.373Z,8.9
2022-12-16T16:44:56.328Z,8
2022-12-16T16:47:58.296Z,8.6
2022-12-16T16:51:00.250Z,7.4
2022-12-16T16:54:02.223Z,8.8
2022-12-16T16:57:04.179Z,7.2
2022-12-16T17:00:06.145Z,7.4
2022-12-16T17:03:08.430Z,6.9
2022-12-16T17:06:10.071Z,7.8
2022-12-16T17:09:12.072Z,7.8
2022-12-16T17:12:14.072Z,7.4
2022-12-16T17:15:16.030Z,7.1
2022-12-16T17:18:17.982Z,7.8
2022-12-16T17:21:19.940Z,7.4
2022-12-16T17:24:22.009Z,6.9
2022-12-16T17:27:23.914Z,7.5
2022-12-16T17:30:25.847Z,8.9
2022-12-16T17:33:27.801Z,8.5
2022-12-16T17:36:31.855Z,7.4
2022-12-16T17:39:31.742Z,8.1
2022-12-16T17:42:33.703Z,7.9
2022-12-16T17:45:35.676Z,7
2022-12-16T17:48:40.347Z,7.3
2022-12-16T17:51:39.588Z,6.8
2022-12-16T17:54:41.576Z,6.9
2022-12-16T17:57:43.533Z,7.6
2022-12-16T18:00:45.498Z,8.7
2022-12-16T18:03:47.614Z,7.6
2022-12-16T18:06:49.425Z,9.1
2022-12-16T18:09:51.479Z,8.7
2022-12-16T18:12:53.414Z,8.4
2022-12-16T18:15:55.427Z,8.7
2022-12-16T18:18:57.325Z,8.6
2022-12-16T18:21:59.285Z,8.5
2022-12-16T18:25:01.255Z,7.6
2022-12-16T18:28:03.201Z,8.6
2022-12-16T18:31:05.202Z,8.2
2022-12-16T18:34:07.136Z,7.3
2022-12-16T18:37:09.120Z,8.9
2022-12-16T18:40:11.072Z,7.9
2022-12-16T18:43:13.043Z,8.6
2022-12-16T18:46:15.098Z,7.5
2022-12-16T18:49:16.958Z,10.5
2022-12-16T18:52:18.929Z,9.8
2022-12-16T18:55:20.892Z,9.2
2022-12-16T18:58:49.450Z,8.5
2022-12-16T19:01:24.986Z,9.7
2022-12-16T19:04:26.767Z,8.3
2022-12-16T19:07:31.776Z,8.4
2022-12-16T19:10:30.698Z,7
2022-12-16T19:13:32.677Z,9.2
2022-12-16T19:16:34.695Z,8.1
2022-12-16T19:19:36.628Z,8.9
2022-12-16T19:22:38.584Z,8.9
2022-12-16T19:25:40.538Z,8.2
2022-12-16T19:28:42.753Z,8.1
2022-12-16T19:31:44.530Z,8.8
2022-12-16T19:34:46.439Z,9.5
2022-12-16T19:37:48.616Z,8.8
2022-12-16T19:40:50.363Z,9.6
2022-12-16T19:43:53.320Z,10.5
2022-12-16T19:46:55.865Z,8.8
2022-12-16T19:49:56.346Z,10.5
2022-12-16T19:52:58.225Z,8.5
2022-12-16T19:56:00.186Z,9.3
2022-12-16T19:59:02.183Z,7.4
2022-12-16T20:02:04.326Z,9
2022-12-16T20:05:06.104Z,8.8
2022-12-16T20:08:08.076Z,9.2
2022-12-16T20:11:10.035Z,8.8
2022-12-16T20:14:11.992Z,9.5
2022-12-16T20:17:13.992Z,7.4
2022-12-16T20:20:15.940Z,8.4
2022-12-16T20:23:17.890Z,9.2
2022-12-16T20:26:19.856Z,10.2
2022-12-16T20:29:21.810Z,9.9
2022-12-16T20:32:23.789Z,8.9
2022-12-16T20:35:25.726Z,8
2022-12-16T20:38:27.694Z,8.5
2022-12-16T20:41:29.668Z,9.4
2022-12-16T20:44:31.630Z,8.5
2022-12-16T20:47:33.596Z,9.4
2022-12-16T20:50:35.621Z,9.6
2022-12-16T20:53:37.893Z,8.8
2022-12-16T20:56:39.675Z,11.5
2022-12-16T20:59:41.582Z,10.3
2022-12-16T21:02:43.592Z,9.8
2022-12-16T21:05:45.527Z,9.9
2022-12-16T21:08:47.492Z,8
2022-12-16T21:11:49.477Z,9.7
2022-12-16T21:14:51.441Z,8.7
2022-12-16T21:17:53.403Z,9
2022-12-16T21:20:55.910Z,8.6
2022-12-16T21:23:57.323Z,7.4
2022-12-16T21:26:59.287Z,8.8
2022-12-16T21:30:01.240Z,7.2
2022-12-16T21:33:03.186Z,7.7
2022-12-16T21:36:05.133Z,8
2022-12-16T21:39:07.116Z,7.4
2022-12-16T21:42:09.066Z,7.3
2022-12-16T21:45:11.014Z,8.6
2022-12-16T21:48:12.971Z,8
2022-12-16T21:51:14.969Z,8.1
2022-12-16T21:54:16.924Z,7.3
2022-12-16T21:57:18.896Z,8.4
2022-12-16T22:00:20.898Z,7.7
2022-12-16T22:03:22.824Z,7.7
2022-12-16T22:06:27.296Z,7.8
2022-12-16T22:09:26.812Z,7.2
2022-12-16T22:12:28.791Z,8.4
2022-12-16T22:15:30.753Z,7.7
2022-12-16T22:18:32.719Z,8.4
2022-12-16T22:21:34.702Z,8.7
2022-12-16T22:24:36.671Z,7.5
2022-12-16T22:27:38.624Z,8.6
2022-12-16T22:30:40.617Z,9.9
2022-12-16T22:33:42.530Z,8.1
2022-12-16T22:36:44.526Z,9.2
2022-12-16T22:39:46.483Z,11.8
2022-12-16T22:42:48.470Z,8.2
2022-12-16T22:45:50.431Z,9.1
2022-12-16T22:48:52.363Z,9.1
2022-12-16T22:51:54.318Z,9.3
2022-12-16T22:54:56.321Z,9.4
2022-12-16T22:57:58.416Z,8.6
2022-12-16T23:01:00.276Z,7.8
2022-12-16T23:04:02.249Z,8.9
2022-12-16T23:07:04.196Z,8.4
2022-12-16T23:10:06.149Z,8.2
2022-12-16T23:13:08.124Z,7.9
2022-12-16T23:16:10.115Z,9.3
2022-12-16T23:19:12.091Z,9.4
2022-12-16T23:22:14.050Z,8.5
2022-12-16T23:25:16.024Z,9.1
2022-12-16T23:28:18.017Z,9
2022-12-16T23:31:19.976Z,8.6
2022-12-16T23:34:21.911Z,8
2022-12-16T23:37:23.900Z,8.9
2022-12-16T23:40:25.860Z,7.9
2022-12-16T23:43:27.818Z,7.8
2022-12-16T23:46:29.813Z,9
2022-12-16T23:49:31.752Z,8.4
2022-12-16T23:52:33.716Z,9.7
2022-12-16T23:55:35.682Z,8.7
2022-12-16T23:58:37.639Z,9.3
